createdAt,value
2018-04-24T00:08:32.000Z,39.931
2018-04-24T00:18:32.000Z,39.94
2018-04-24T00:28:32.000Z,39.924
2018-04-24T00:38:32.000Z,39.954
2018-04-24T00:48:32.000Z,39.95
2018-04-24T00:58:32.000Z,39.99
2018-04-24T01:08:32.000Z,39.997
2018-04-24T01:18:32.000Z,39.983
2018-04-24T01:28:32.000Z,40.044
2018-04-24T01:38:32.000Z,40.083
2018-04-24T01:48:32.000Z,40.102
2018-04-24T01:58:32.000Z,40.141
2018-04-24T02:08:32.000Z,40.128
2018-04-24T02:18:32.000Z,40.178
2018-04-24T02:28:32.000Z,40.208
2018-04-24T02:38:32.000Z,40.259
2018-04-24T02:48:32.000Z,40.276
2018-04-24T02:58:32.000Z,40.273
2018-04-24T03:08:32.000Z,40.248
2018-04-24T03:18:32.000Z,40.277
2018-04-24T03:28:32.000Z,40.283
2018-04-24T03:38:32.000Z,40.27
2018-04-24T03:48:32.000Z,40.277
2018-04-24T03:58:32.000Z,40.286
2018-04-24T04:08:32.000Z,40.271
2018-04-24T04:18:32.000Z,40.213
2018-04-24T04:28:32.000Z,40.265
2018-04-24T04:38:32.000Z,40.242
2018-04-24T04:48:32.000Z,40.228
2018-04-24T04:58:32.000Z,40.257
2018-04-24T05:08:32.000Z,40.255
2018-04-24T05:18:32.000Z,40.221
2018-04-24T05:28:32.000Z,40.219
2018-04-24T05:38:32.000Z,40.227
2018-04-24T05:48:32.000Z,40.214
2018-04-24T05:58:32.000Z,40.18
2018-04-24T06:08:32.000Z,40.147
2018-04-24T06:18:32.000Z,40.145
2018-04-24T06:28:32.000Z,40.132
2018-04-24T06:38:32.000Z,40.023
2018-04-24T06:48:33.000Z,40.222
2018-04-24T06:58:33.000Z,40.345
2018-04-24T07:08:33.000Z,40.596
2018-04-24T07:18:33.000Z,40.784
2018-04-24T07:28:33.000Z,40.862
2018-04-24T07:38:33.000Z,41.005
2018-04-24T07:48:33.000Z,41.074
2018-04-24T07:58:33.000Z,41.285
2018-04-24T08:08:33.000Z,41.112
2018-04-24T08:18:33.000Z,41.253
2018-04-24T08:28:33.000Z,41.374
2018-04-24T08:38:33.000Z,41.516
2018-04-24T08:48:33.000Z,41.576
2018-04-24T08:58:33.000Z,41.773
2018-04-24T09:08:33.000Z,41.809
2018-04-24T09:18:33.000Z,41.833
2018-04-24T09:28:33.000Z,42.002
2018-04-24T09:38:33.000Z,41.965
2018-04-24T09:48:33.000Z,42.31
2018-04-24T09:58:33.000Z,42.166
2018-04-24T10:08:33.000Z,42.125
2018-04-24T10:18:33.000Z,42.225
2018-04-24T10:28:33.000Z,42.283
2018-04-24T10:38:33.000Z,42.364
2018-04-24T10:48:33.000Z,42.465
2018-04-24T10:58:33.000Z,42.47
2018-04-24T11:08:34.000Z,42.333
2018-04-24T11:18:33.000Z,42.206
2018-04-24T11:28:33.000Z,42.228
2018-04-24T11:38:33.000Z,42.144
2018-04-24T11:48:33.000Z,42.157
2018-04-24T11:58:33.000Z,42.234
2018-04-24T12:08:33.000Z,42.246
2018-04-24T12:18:33.000Z,42.258
2018-04-24T12:28:33.000Z,42.152
2018-04-24T12:38:33.000Z,42.157
2018-04-24T12:48:33.000Z,42.154
2018-04-24T13:08:33.000Z,42.427
2018-04-24T13:18:33.000Z,42.559
2018-04-24T13:28:33.000Z,42.656
2018-04-24T13:38:33.000Z,42.73
2018-04-24T14:08:33.000Z,42.969
2018-04-24T14:18:34.000Z,43.09
2018-04-24T14:28:35.000Z,43.091
2018-04-24T14:38:33.000Z,43.146
2018-04-24T14:48:33.000Z,43.17
2018-04-24T14:58:34.000Z,43.082
2018-04-24T15:08:34.000Z,43.105
2018-04-24T15:18:34.000Z,43.631
2018-04-24T15:28:34.000Z,44.59
2018-04-24T15:38:34.000Z,45.438
2018-04-24T15:48:34.000Z,45.805
2018-04-24T15:58:34.000Z,45.653
2018-04-24T16:08:34.000Z,45.764
2018-04-24T16:18:34.000Z,45.643
2018-04-24T16:28:34.000Z,45.619
2018-04-24T16:38:34.000Z,45.585
2018-04-24T16:48:34.000Z,45.551
2018-04-24T16:58:34.000Z,45.417
2018-04-24T17:08:34.000Z,45.425
2018-04-24T17:18:34.000Z,45.378
2018-04-24T17:28:34.000Z,45.442
2018-04-24T17:38:34.000Z,45.33
2018-04-24T17:48:34.000Z,45.283
2018-04-24T17:58:34.000Z,45.314
2018-04-24T18:08:34.000Z,45.333
2018-04-24T18:18:34.000Z,45.275
2018-04-24T18:28:34.000Z,45.186
2018-04-24T18:38:34.000Z,45.316
2018-04-24T18:48:34.000Z,45.291
2018-04-24T18:58:34.000Z,45.278
2018-04-24T19:08:34.000Z,45.297
2018-04-24T19:18:34.000Z,45.208
2018-04-24T19:28:34.000Z,45.272
2018-04-24T19:38:34.000Z,45.195
2018-04-24T19:48:34.000Z,45.204
2018-04-24T19:58:34.000Z,45.234
2018-04-24T20:08:34.000Z,45.234
2018-04-24T20:18:34.000Z,45.275
2018-04-24T20:28:34.000Z,45.294
2018-04-24T20:38:34.000Z,45.369
2018-04-24T20:48:34.000Z,45.66
2018-04-24T20:58:34.000Z,46.385
2018-04-24T21:08:34.000Z,46.546
2018-04-24T21:18:34.000Z,46.333
2018-04-24T21:28:34.000Z,46.241
2018-04-24T21:38:34.000Z,46.207
2018-04-24T21:48:34.000Z,46.149
2018-04-24T21:58:34.000Z,45.995
2018-04-24T22:08:34.000Z,45.981
2018-04-24T22:18:34.000Z,45.913
2018-04-24T22:28:34.000Z,45.976
2018-04-24T22:38:34.000Z,45.907
2018-04-24T22:48:34.000Z,45.959
2018-04-24T22:58:35.000Z,45.892
2018-04-24T23:08:34.000Z,45.966
2018-04-24T23:28:35.000Z,45.534
2018-04-24T23:38:34.000Z,45.703
2018-04-24T23:48:35.000Z,45.753
2018-04-24T23:58:35.000Z,45.775
